Time;durP1;ratioP1;P1;durP2;ratioP2;P2;SDS_P1;SDS_P2;PMS_P1;PMS_P2;Temp;Humidity;BMP_temperature;BMP_pressure;BME280_temperature;BME280_humidity;BME280_pressure;Samples;Min_cycle;Max_cycle;Signal;HPM_P1;HPM_P2
2021/12/14 00:02:29;;;;;;;36.67;19.63;;;;;;;3.06;65.87;101454.31;5408049;32;34110;-66
2021/12/14 00:05:33;;;;;;;39.73;18.97;;;;;;;2.75;67.10;101462.69;5422195;32;35075;-66
2021/12/14 00:08:47;;;;;;;43.45;20.77;;;;;;;2.79;67.28;101464.47;5407913;32;32804;-66
2021/12/14 00:12:08;;;;;;;42.17;19.93;;;;;;;3.29;64.97;101454.53;5425080;32;33091;-66
2021/12/14 00:15:13;;;;;;;41.87;19.70;;;;;;;3.38;64.01;101456.31;5413015;32;34646;-64
2021/12/14 00:18:16;;;;;;;37.27;20.00;;;;;;;3.14;65.13;101462.19;5433363;32;33447;-65
2021/12/14 00:21:28;;;;;;;39.83;20.53;;;;;;;2.77;65.84;101467.06;5431007;32;35454;-65
2021/12/14 00:24:32;;;;;;;41.13;20.70;;;;;;;2.09;69.07;101470.59;5429538;32;33930;-65
2021/12/14 00:27:34;;;;;;;44.28;21.52;;;;;;;2.17;69.15;101473.28;5414056;32;35443;-66
2021/12/14 00:30:37;;;;;;;38.20;18.87;;;;;;;1.85;70.57;101467.66;5411860;32;34877;-65
2021/12/14 00:33:40;;;;;;;49.07;22.53;;;;;;;2.37;68.30;101468.31;5437764;32;34447;-66
2021/12/14 00:36:42;;;;;;;40.40;21.80;;;;;;;1.55;72.12;101466.41;5431936;32;32884;-66
2021/12/14 00:39:45;;;;;;;36.40;20.97;;;;;;;1.78;71.16;101469.31;5393389;32;32967;-66
2021/12/14 00:42:48;;;;;;;42.40;21.40;;;;;;;2.12;70.13;101470.63;5410893;32;33974;-65
2021/12/14 00:45:51;;;;;;;42.97;20.40;;;;;;;2.21;69.60;101475.06;5431201;32;33003;-66
2021/12/14 00:48:54;;;;;;;38.13;19.93;;;;;;;2.60;67.30;101473.78;5411735;32;32833;-67
2021/12/14 00:51:57;;;;;;;40.50;19.77;;;;;;;3.44;63.65;101472.81;5404552;32;33590;-66
2021/12/14 00:54:59;;;;;;;42.43;19.73;;;;;;;3.11;64.93;101470.84;5423454;32;35342;-66
2021/12/14 00:58:03;;;;;;;35.87;18.90;;;;;;;2.53;66.77;101488.44;5420631;32;33351;-66
2021/12/14 01:01:27;;;;;;;40.30;20.05;;;;;;;2.61;66.93;101494.56;5404337;32;34934;-66
2021/12/14 01:04:35;;;;;;;37.10;19.00;;;;;;;2.16;67.97;101489.69;5423635;32;34236;-66
2021/12/14 01:07:37;;;;;;;38.87;19.30;;;;;;;2.76;66.99;101486.06;5404855;32;34261;-65
2021/12/14 01:10:47;;;;;;;41.00;19.57;;;;;;;3.17;64.45;101491.66;5410652;32;35150;-65
2021/12/14 01:14:06;;;;;;;37.77;19.47;;;;;;;2.25;67.08;101487.22;5431063;32;34500;-65
2021/12/14 01:17:24;;;;;;;40.50;19.43;;;;;;;2.09;68.85;101480.97;5416588;32;34859;-66
2021/12/14 01:20:32;;;;;;;34.70;18.60;;;;;;;2.41;67.03;101486.56;5397321;32;35190;-66
2021/12/14 01:23:34;;;;;;;37.27;19.07;;;;;;;2.54;67.40;101477.19;5423767;32;34437;-65
2021/12/14 01:26:39;;;;;;;36.37;17.87;;;;;;;2.41;67.20;101483.09;5398259;32;35360;-65
2021/12/14 01:29:42;;;;;;;41.90;19.73;;;;;;;2.55;67.53;101481.50;5429601;32;34525;-66
2021/12/14 01:32:47;;;;;;;38.10;19.75;;;;;;;2.05;69.38;101494.72;5431214;32;34809;-66
2021/12/14 01:35:51;;;;;;;40.80;20.77;;;;;;;2.11;68.84;101483.56;5423526;32;34199;-65
2021/12/14 01:39:11;;;;;;;37.40;20.13;;;;;;;2.41;67.20;101483.09;5403516;32;33225;-66
2021/12/14 01:42:33;;;;;;;36.93;20.53;;;;;;;1.55;70.61;101479.34;5435444;32;34622;-66
2021/12/14 01:45:35;;;;;;;39.47;20.40;;;;;;;1.54;70.69;101482.78;5430207;32;35321;-66
2021/12/14 01:48:39;;;;;;;36.07;19.67;;;;;;;2.00;68.86;101478.28;5417502;32;32971;-65
2021/12/14 01:51:46;;;;;;;39.67;20.75;;;;;;;1.29;71.36;101489.31;5408776;32;34910;-65
2021/12/14 01:54:53;;;;;;;44.90;22.77;;;;;;;1.30;71.45;101485.88;5429933;32;34374;-65
2021/12/14 01:58:01;;;;;;;45.83;22.40;;;;;;;1.58;70.83;101479.38;5422863;32;34838;-67
2021/12/14 02:01:10;;;;;;;42.27;22.00;;;;;;;1.54;70.80;101479.31;5429679;32;35253;-66
2021/12/14 02:04:19;;;;;;;46.67;23.23;;;;;;;2.06;68.01;101472.25;5420773;32;34603;-65
2021/12/14 02:07:23;;;;;;;42.73;22.63;;;;;;;2.23;67.72;101475.06;5408475;32;34913;-66
2021/12/14 02:10:27;;;;;;;;;;;;;;;1.49;70.41;101481.84;5416330;32;34572;-66
2021/12/14 02:13:35;;;;;;;44.80;21.83;;;;;;;1.28;70.47;101487.53;5424780;32;34900;-66
2021/12/14 02:16:38;;;;;;;43.27;23.77;;;;;;;2.06;68.53;101480.03;5428854;32;33649;-65
2021/12/14 02:19:41;;;;;;;47.43;23.83;;;;;;;2.76;64.88;101477.41;5432447;32;34100;-65
2021/12/14 02:22:44;;;;;;;46.33;22.17;;;;;;;2.08;66.72;101484.41;5425706;32;34853;-66
2021/12/14 02:25:48;;;;;;;46.87;22.20;;;;;;;1.37;70.28;101488.56;5407173;32;34541;-66
2021/12/14 02:28:50;;;;;;;;;;;;;;;0.91;72.92;101480.91;5426952;32;34172;-65
2021/12/14 02:31:59;;;;;;;43.87;21.47;;;;;;;1.41;71.56;101482.56;5424487;32;34347;-65
2021/12/14 02:35:05;;;;;;;39.87;19.97;;;;;;;2.41;66.32;101477.91;5412520;32;34010;-65
2021/12/14 02:38:11;;;;;;;40.10;19.73;;;;;;;0.75;71.17;101486.62;5410539;32;34698;-66
2021/12/14 02:41:13;;;;;;;42.57;19.43;;;;;;;1.03;72.10;101490.56;5437196;32;34059;-65
2021/12/14 02:44:16;;;;;;;40.47;21.07;;;;;;;1.23;71.21;101486.62;5420011;32;34846;-65
2021/12/14 02:47:20;;;;;;;36.37;19.60;;;;;;;1.47;69.54;101483.53;5405710;32;34237;-66
2021/12/14 02:50:23;;;;;;;38.10;17.92;;;;;;;1.40;70.57;101475.62;5424789;32;33880;-66
2021/12/14 02:53:25;;;;;;;37.38;18.67;;;;;;;1.80;68.71;101477.09;5431835;32;34113;-65
2021/12/14 02:56:31;;;;;;;36.63;18.77;;;;;;;1.08;71.19;101483.75;5400625;32;35232;-65
2021/12/14 02:59:35;;;;;;;40.50;20.13;;;;;;;1.24;70.66;101482.31;5418515;32;34131;-65
2021/12/14 03:02:38;;;;;;;40.07;19.43;;;;;;;1.41;69.72;101480.84;5434729;32;34707;-66
2021/12/14 03:05:42;;;;;;;39.83;20.40;;;;;;;1.39;69.62;101479.09;5406113;32;34190;-65
2021/12/14 03:08:56;;;;;;;46.33;22.73;;;;;;;1.60;69.28;101474.22;5405923;32;34094;-66
2021/12/14 03:12:08;;;;;;;44.83;22.45;;;;;;;1.27;69.68;101474.56;5438180;32;33116;-65
2021/12/14 03:15:16;;;;;;;38.70;21.07;;;;;;;0.95;70.65;101477.50;5410973;32;34021;-65
2021/12/14 03:18:28;;;;;;;44.83;23.57;;;;;;;0.94;71.38;101483.53;5410261;32;33856;-65
2021/12/14 03:21:34;;;;;;;45.63;24.40;;;;;;;0.48;72.72;101493.03;5416422;32;34664;-66
2021/12/14 03:24:39;;;;;;;51.87;23.80;;;;;;;0.85;72.42;101491.13;5431014;32;35268;-66
2021/12/14 03:27:43;;;;;;;41.40;21.97;;;;;;;1.37;69.57;101484.25;5412151;32;34798;-65
2021/12/14 03:30:48;;;;;;;;;;;;;;;0.99;70.15;101476.72;5424347;32;34153;-66
2021/12/14 03:34:22;;;;;;;38.33;20.77;;;;;;;1.20;69.90;101478.78;5427907;32;34499;-65
2021/12/14 03:37:25;;;;;;;47.90;22.60;;;;;;;1.51;68.76;101474.97;5419453;32;34071;-65
2021/12/14 03:40:27;;;;;;;47.83;25.30;;;;;;;0.66;71.78;101487.34;5416979;32;34769;-65
2021/12/14 03:43:30;;;;;;;42.13;22.07;;;;;;;0.60;72.25;101489.81;5408130;32;35145;-65
2021/12/14 03:46:38;;;;;;;44.47;23.13;;;;;;;0.48;72.98;101490.44;5404523;32;34958;-65
2021/12/14 03:49:45;;;;;;;44.97;24.10;;;;;;;0.68;71.96;101482.19;5426981;32;34519;-66
2021/12/14 03:52:48;;;;;;;51.50;25.10;;;;;;;0.93;71.95;101481.78;5405818;32;35129;-65
2021/12/14 03:55:53;;;;;;;;;;;;;;;0.66;72.51;101476.12;5433068;32;34275;-66
2021/12/14 03:58:56;;;;;;;48.30;26.02;;;;;;;0.74;71.71;101471.94;5441216;32;34328;-66
2021/12/14 04:02:02;;;;;;;53.13;25.80;;;;;;;0.33;73.58;101479.78;5431586;32;34952;-65
2021/12/14 04:05:09;;;;;;;50.00;25.13;;;;;;;1.23;70.70;101467.63;5411785;32;34810;-65
2021/12/14 04:08:13;;;;;;;52.37;26.63;;;;;;;1.83;66.47;101464.19;5418470;32;34319;-65
2021/12/14 04:11:16;;;;;;;50.35;26.50;;;;;;;0.87;70.53;101480.81;5410627;32;33914;-65
2021/12/14 04:14:20;;;;;;;51.75;25.85;;;;;;;1.18;70.38;101487.37;5393850;32;35590;-65
2021/12/14 04:17:27;;;;;;;50.58;25.90;;;;;;;1.63;67.88;101480.34;5405358;32;34683;-65
2021/12/14 04:20:33;;;;;;;51.10;26.77;;;;;;;1.05;70.00;101484.59;5420516;32;33823;-68
2021/12/14 04:23:39;;;;;;;52.00;24.87;;;;;;;0.11;73.71;101487.94;5427415;32;35305;-65
2021/12/14 04:26:45;;;;;;;49.57;25.00;;;;;;;0.42;73.03;101489.44;5423995;32;32790;-66
2021/12/14 04:29:47;;;;;;;46.83;24.27;;;;;;;1.88;66.59;101470.31;5416357;32;35063;-65
2021/12/14 04:32:56;;;;;;;51.33;24.77;;;;;;;0.30;71.38;101477.13;5417257;32;34047;-66
2021/12/14 04:36:02;;;;;;;47.47;24.27;;;;;;;0.25;72.82;101486.50;5436607;32;34311;-66
2021/12/14 04:53:06;;;;;;;44.90;22.73;;;;;;;-0.07;74.25;101497.03;5426558;32;34126;-65
2021/12/14 04:56:12;;;;;;;46.30;24.10;;;;;;;-0.01;74.28;101504.06;5430990;32;34468;-66
2021/12/14 04:59:20;;;;;;;50.10;24.03;;;;;;;0.00;74.65;101508.41;5422819;32;34091;-66
2021/12/14 05:02:27;;;;;;;47.20;23.77;;;;;;;0.09;75.24;101502.56;5408861;32;36310;-66
2021/12/14 05:05:40;;;;;;;47.20;23.07;;;;;;;1.11;71.06;101489.00;5416922;32;34365;-65
2021/12/14 05:12:00;;;;;;;45.47;23.43;;;;;;;-0.38;75.01;101497.22;5417530;32;35215;-66
2021/12/14 05:15:08;;;;;;;46.30;22.70;;;;;;;0.18;74.09;101497.56;5434205;32;34901;-66
2021/12/14 05:18:14;;;;;;;40.70;21.63;;;;;;;0.56;72.19;101500.06;5422930;32;34728;-65
2021/12/14 05:21:32;;;;;;;45.63;22.80;;;;;;;-0.19;74.92;101504.53;5420874;32;34300;-65
2021/12/14 05:24:38;;;;;;;43.13;21.40;;;;;;;-0.47;76.91;101507.31;5421293;32;34276;-65
2021/12/14 05:27:44;;;;;;;42.97;22.30;;;;;;;-0.32;76.18;101502.53;5417366;32;34031;-65
2021/12/14 05:30:50;;;;;;;48.53;24.70;;;;;;;-0.52;77.14;101514.06;5422251;32;36545;-66
2021/12/14 05:33:52;;;;;;;40.97;21.13;;;;;;;0.36;74.58;101510.88;5418163;32;32806;-66
2021/12/14 05:36:55;;;;;;;45.90;22.53;;;;;;;0.74;70.79;101505.59;5417163;32;34497;-65
2021/12/14 05:40:02;;;;;;;41.90;21.83;;;;;;;-0.48;76.36;101515.91;5407910;32;34758;-64
2021/12/14 05:43:07;;;;;;;43.73;21.40;;;;;;;0.16;74.00;101514.75;5417561;32;34717;-65
2021/12/14 05:46:11;;;;;;;41.93;19.93;;;;;;;0.82;71.44;101519.53;5410425;32;35580;-66
2021/12/14 05:49:14;;;;;;;44.97;22.93;;;;;;;0.21;73.04;101531.25;5416976;32;34102;-68
2021/12/14 05:52:23;;;;;;;44.73;20.77;;;;;;;0.04;73.96;101532.59;5394095;32;34614;-66
2021/12/14 05:55:29;;;;;;;40.43;19.87;;;;;;;0.20;73.43;101534.69;5413219;32;35037;-65
2021/12/14 05:58:32;;;;;;;37.50;19.67;;;;;;;-0.03;72.92;101536.75;5418494;32;34192;-66
2021/12/14 06:01:35;;;;;;;39.20;20.33;;;;;;;-0.04;73.87;101541.06;5424047;32;34650;-66
2021/12/14 06:04:45;;;;;;;39.23;20.30;;;;;;;0.16;71.56;101544.06;5431822;32;33964;-65
2021/12/14 06:07:48;;;;;;;45.70;19.70;;;;;;;-0.09;72.40;101540.06;5425156;32;34962;-65
2021/12/14 06:10:50;;;;;;;38.23;19.13;;;;;;;-0.45;74.45;101539.19;5418053;32;35543;-65
2021/12/14 06:13:53;;;;;;;40.83;19.80;;;;;;;-0.22;74.62;101545.78;5422051;32;35216;-65
2021/12/14 06:17:04;;;;;;;43.37;20.23;;;;;;;0.00;72.28;101531.66;5424623;32;34052;-66
2021/12/14 06:20:09;;;;;;;39.93;20.33;;;;;;;-0.21;70.83;101528.59;5401858;32;34407;-66
2021/12/14 06:23:12;;;;;;;36.90;17.97;;;;;;;-0.64;73.82;101537.91;5432053;32;33084;-64
2021/12/14 06:26:15;;;;;;;41.35;19.08;;;;;;;0.20;70.44;101537.28;5405251;32;34007;-65
2021/12/14 06:29:25;;;;;;;39.90;18.87;;;;;;;-0.14;71.61;101549.41;5415718;32;34106;-65
2021/12/14 06:32:34;;;;;;;35.83;16.73;;;;;;;-0.83;72.25;101552.94;5424957;32;34924;-66
2021/12/14 06:35:46;;;;;;;37.00;17.80;;;;;;;-1.43;75.15;101554.72;5416109;32;34371;-67
2021/12/14 06:39:03;;;;;;;37.43;17.77;;;;;;;-1.44;76.82;101555.53;5432957;32;33999;-66
2021/12/14 06:42:07;;;;;;;34.47;16.43;;;;;;;-0.97;74.96;101549.09;5432883;32;36245;-68
2021/12/14 06:45:19;;;;;;;;;;;;;;;-1.11;75.44;101541.00;5422643;32;34145;-70
2021/12/14 06:48:27;;;;;;;32.90;15.73;;;;;;;-1.33;75.16;101554.16;5431880;32;33247;-67
2021/12/14 06:51:35;;;;;;;39.90;16.77;;;;;;;-0.95;74.73;101556.91;5427232;32;33242;-68
2021/12/14 06:54:41;;;;;;;39.77;18.33;;;;;;;-1.19;74.88;101560.56;5435569;32;34695;-79
2021/12/14 06:57:45;;;;;;;37.30;16.53;;;;;;;-1.51;75.59;101561.38;5397510;32;34230;-80
2021/12/14 07:01:11;;;;;;;34.20;17.00;;;;;;;-0.48;71.85;101557.22;5406644;32;33901;-70
2021/12/14 07:04:16;;;;;;;38.93;17.03;;;;;;;-0.49;71.15;101558.06;5428375;32;35051;-68
2021/12/14 07:07:28;;;;;;;33.63;15.97;;;;;;;-1.10;73.23;101565.06;5412124;32;34132;-74
2021/12/14 07:10:37;;;;;;;34.97;16.90;;;;;;;-0.63;71.57;101562.87;5431785;32;33539;-72
2021/12/14 07:13:40;;;;;;;36.43;16.60;;;;;;;-0.94;74.77;101571.53;5412658;32;33976;-67
2021/12/14 07:16:47;;;;;;;34.83;16.53;;;;;;;-1.07;74.99;101565.19;5438664;32;33985;-78
2021/12/14 07:19:55;;;;;;;38.87;16.70;;;;;;;0.25;70.53;101561.50;5432606;32;35464;-72
2021/12/14 07:23:01;;;;;;;41.33;16.93;;;;;;;-0.95;73.07;101569.81;5427633;32;35051;-69
2021/12/14 07:26:10;;;;;;;37.13;17.20;;;;;;;-0.96;75.68;101566.34;5398387;32;34612;-72
2021/12/14 07:29:23;;;;;;;43.20;16.40;;;;;;;-0.19;72.86;101574.31;5414914;32;34613;-69
2021/12/14 07:32:38;;;;;;;41.43;17.43;;;;;;;-0.16;71.21;101564.03;5405190;32;35728;-63
2021/12/14 07:35:55;;;;;;;37.43;17.70;;;;;;;0.10;70.12;101571.50;5431786;32;35145;-72
2021/12/14 07:39:06;;;;;;;39.60;17.90;;;;;;;-0.08;72.02;101580.56;5419929;32;33242;-71
2021/12/14 07:42:15;;;;;;;41.33;20.10;;;;;;;-0.31;75.06;101589.50;5415769;32;34261;-72
2021/12/14 07:45:24;;;;;;;39.07;19.13;;;;;;;0.09;71.69;101588.72;5416331;32;35057;-67
2021/12/14 07:49:04;;;;;;;43.13;19.63;;;;;;;-0.25;74.52;101587.09;5430664;32;32870;-76
2021/12/14 07:52:12;;;;;;;37.70;17.07;;;;;;;-0.54;74.39;101583.75;5419342;32;34720;-66
2021/12/14 07:55:20;;;;;;;39.23;16.57;;;;;;;1.08;68.32;101569.19;5430698;32;34853;-73
2021/12/14 07:58:54;;;;;;;38.67;16.57;;;;;;;-0.07;72.87;101579.72;5395443;32;34683;-71
2021/12/14 08:02:19;;;;;;;39.30;16.13;;;;;;;0.84;70.36;101574.81;5400581;32;34160;-73
2021/12/14 08:05:23;;;;;;;41.53;18.53;;;;;;;-0.48;72.70;101575.31;5421097;32;32925;-72
2021/12/14 08:08:40;;;;;;;43.22;19.35;;;;;;;0.07;71.67;101569.75;5415603;32;34914;-80
2021/12/14 08:11:48;;;;;;;41.67;17.40;;;;;;;-0.50;74.40;101576.97;5398517;32;34701;-88
2021/12/14 08:15:33;;;;;;;45.17;20.97;;;;;;;-0.48;76.49;101571.00;5435874;32;33590;-74
2021/12/14 08:18:38;;;;;;;45.73;19.33;;;;;;;-0.07;73.80;101577.16;5408236;32;34875;-70
2021/12/14 08:21:44;;;;;;;47.63;20.67;;;;;;;0.58;71.97;101582.03;5416745;32;34116;-70
2021/12/14 08:24:48;;;;;;;47.20;19.87;;;;;;;-0.36;75.26;101575.59;5434262;32;33291;-65
2021/12/14 08:28:06;;;;;;;56.47;22.92;;;;;;;1.13;69.94;101574.47;5426946;32;34113;-64
2021/12/14 08:31:08;;;;;;;44.63;19.47;;;;;;;0.37;72.94;101579.84;5420477;32;33881;-65
2021/12/14 08:34:19;;;;;;;55.88;20.88;;;;;;;-0.09;74.36;101572.78;5406741;32;32041;-75
2021/12/14 08:37:30;;;;;;;60.63;23.27;;;;;;;-0.22;76.51;101579.37;5416678;32;35717;-62
2021/12/14 08:40:42;;;;;;;58.33;21.90;;;;;;;0.65;73.96;101575.28;5436793;32;34954;-75
2021/12/14 08:43:54;;;;;;;64.60;24.60;;;;;;;0.40;73.81;101577.34;5399307;32;33434;-68
2021/12/14 08:46:56;;;;;;;60.57;24.23;;;;;;;1.00;71.73;101578.53;5436942;32;34934;-69
2021/12/14 08:50:02;;;;;;;55.27;22.90;;;;;;;1.16;71.50;101579.69;5400382;32;34029;-64
2021/12/14 08:53:08;;;;;;;52.93;21.73;;;;;;;1.89;68.00;101578.34;5427300;32;36537;-67
2021/12/14 08:56:13;;;;;;;52.67;21.73;;;;;;;2.30;67.24;101578.94;5432959;32;33981;-64
2021/12/14 08:59:16;;;;;;;50.40;21.47;;;;;;;2.08;65.03;101575.19;5428078;32;34155;-64
2021/12/14 09:02:22;;;;;;;53.40;23.23;;;;;;;0.82;72.37;101584.22;5406112;32;34087;-66
2021/12/14 09:05:40;;;;;;;55.07;22.23;;;;;;;1.25;71.35;101575.56;5420929;32;224988;-67
2021/12/14 09:08:46;;;;;;;50.90;22.63;;;;;;;0.66;74.77;101580.47;5416181;32;34627;-66
2021/12/14 09:12:03;;;;;;;58.33;24.57;;;;;;;1.54;70.64;101567.41;5405572;32;33577;-71
2021/12/14 09:15:11;;;;;;;59.17;24.57;;;;;;;1.04;73.17;101570.88;5403811;32;35590;-71
2021/12/14 09:18:16;;;;;;;59.27;25.20;;;;;;;0.61;75.13;101576.06;5433800;32;34628;-74
2021/12/14 09:21:30;;;;;;;61.60;26.27;;;;;;;1.16;73.83;101562.47;5409447;32;35726;-68
2021/12/14 09:24:33;;;;;;;68.23;26.00;;;;;;;1.17;73.84;101569.37;5413478;32;33938;-69
2021/12/14 09:27:35;;;;;;;58.03;26.47;;;;;;;2.56;66.29;101550.72;5421623;32;34701;-67
2021/12/14 09:30:49;;;;;;;62.93;26.60;;;;;;;3.66;62.56;101554.44;5412445;32;33289;-71
2021/12/14 09:33:57;;;;;;;59.13;25.80;;;;;;;2.39;66.02;101553.13;5414508;32;34218;-70
2021/12/14 09:37:09;;;;;;;65.93;27.67;;;;;;;1.54;70.62;101563.09;5428317;32;34146;-75
2021/12/14 09:40:32;;;;;;;61.50;27.27;;;;;;;2.46;67.16;101561.88;5426570;32;34662;-69
2021/12/14 09:43:35;;;;;;;62.43;26.77;;;;;;;2.49;66.84;101541.13;5431145;32;35276;-64
2021/12/14 09:46:38;;;;;;;58.92;25.17;;;;;;;3.15;64.14;101545.31;5416068;32;34076;-63
2021/12/14 09:49:44;;;;;;;56.53;25.55;;;;;;;3.09;64.09;101547.88;5433083;32;33744;-68
2021/12/14 09:52:48;;;;;;;62.47;26.23;;;;;;;3.21;63.42;101534.97;5426156;32;33942;-72
2021/12/14 09:55:52;;;;;;;50.93;24.67;;;;;;;2.89;65.32;101539.00;5417806;32;33028;-67
2021/12/14 09:58:58;;;;;;;56.13;26.23;;;;;;;3.09;65.34;101540.09;5429002;32;34967;-70
2021/12/14 10:02:24;;;;;;;58.77;25.17;;;;;;;2.65;66.53;101537.88;5404667;32;34207;-71
2021/12/14 10:05:40;;;;;;;60.23;25.10;;;;;;;2.04;68.88;101536.22;5430362;32;35477;-67
2021/12/14 10:08:48;;;;;;;52.83;24.93;;;;;;;1.69;70.81;101528.81;5427060;32;33798;-70
2021/12/14 10:12:07;;;;;;;64.50;26.90;;;;;;;2.07;69.07;101531.94;5402033;32;35167;-66
2021/12/14 10:15:18;;;;;;;58.80;27.37;;;;;;;2.22;70.19;101527.81;5407878;32;35350;-65
2021/12/14 10:18:30;;;;;;;65.37;26.80;;;;;;;2.95;66.69;101524.34;5431438;32;35836;-71
2021/12/14 10:21:40;;;;;;;63.43;27.37;;;;;;;2.98;67.20;101523.53;5426163;32;34420;-74
2021/12/14 10:24:44;;;;;;;74.73;28.77;;;;;;;3.46;64.94;101517.00;5423271;32;32704;-75
2021/12/14 10:27:47;;;;;;;55.10;26.77;;;;;;;2.82;67.98;101513.81;5415442;32;33901;-70
2021/12/14 10:30:56;;;;;;;49.63;24.10;;;;;;;2.56;68.73;101523.91;5403664;32;32547;-71
2021/12/14 10:34:01;;;;;;;52.63;26.50;;;;;;;3.17;68.09;101517.66;5413132;32;33791;-70
2021/12/14 10:37:18;;;;;;;51.67;23.73;;;;;;;3.24;66.27;101502.97;5433532;32;33961;-67
2021/12/14 10:43:59;;;;;;;51.67;23.10;;;;;;;3.31;66.86;101509.09;5405655;32;34089;-68
2021/12/14 10:47:02;;;;;;;51.10;25.70;;;;;;;2.97;68.49;101520.06;5433289;32;34180;-78
2021/12/14 10:50:10;;;;;;;49.42;22.48;;;;;;;3.57;65.86;101507.56;5409570;32;35450;-62
2021/12/14 10:53:13;;;;;;;59.13;24.17;;;;;;;4.26;62.60;101516.69;5395850;32;33073;-70
2021/12/14 10:56:20;;;;;;;47.83;22.63;;;;;;;3.32;66.06;101503.91;5407767;32;33985;-67
2021/12/14 10:59:26;;;;;;;46.20;22.90;;;;;;;3.39;66.32;101504.81;5431009;32;34022;-63
2021/12/14 11:02:29;;;;;;;42.37;21.20;;;;;;;2.80;69.13;101505.16;5426479;32;35357;-68
2021/12/14 11:05:39;;;;;;;44.55;23.33;;;;;;;4.34;62.30;101501.94;5400515;32;33592;-63
2021/12/14 11:08:58;;;;;;;46.53;20.23;;;;;;;3.19;66.25;101496.88;5397758;32;33857;-64
2021/12/14 11:12:01;;;;;;;53.53;22.60;;;;;;;3.65;65.79;101502.44;5413196;32;34095;-69
2021/12/14 11:15:17;;;;;;;41.30;20.50;;;;;;;3.45;66.12;101494.47;5406409;32;34086;-71
2021/12/14 11:18:24;;;;;;;44.67;21.10;;;;;;;4.37;63.12;101497.63;5406104;32;33448;-81
2021/12/14 11:21:27;;;;;;;45.00;21.07;;;;;;;4.27;63.08;101494.13;5422887;32;34653;-78
2021/12/14 11:24:37;;;;;;;46.60;21.73;;;;;;;5.54;60.38;101481.28;5424589;32;34569;-81
2021/12/14 11:27:47;;;;;;;45.20;22.57;;;;;;;4.74;62.30;101483.84;5408226;32;34963;-81
2021/12/14 11:30:56;;;;;;;51.47;23.10;;;;;;;5.23;60.75;101478.72;5422934;32;35635;-83
2021/12/14 11:34:08;;;;;;;46.90;24.23;;;;;;;5.04;59.96;101482.19;5406254;32;35254;-81
2021/12/14 11:37:14;;;;;;;64.97;34.83;;;;;;;6.30;56.97;101481.13;5419834;32;34795;-68
2021/12/14 11:40:20;;;;;;;52.67;24.50;;;;;;;5.55;58.23;101480.44;5429976;32;35056;-70
2021/12/14 11:43:29;;;;;;;42.23;22.83;;;;;;;5.86;57.78;101476.91;5427345;32;35504;-68
2021/12/14 11:46:58;;;;;;;53.40;25.03;;;;;;;5.89;58.30;101478.63;5414792;32;33356;-63
2021/12/14 11:50:12;;;;;;;46.63;22.63;;;;;;;6.21;56.78;101479.44;5424574;32;34346;-74
2021/12/14 11:53:20;;;;;;;50.67;23.50;;;;;;;7.25;54.67;101472.72;5425189;32;34732;-69
2021/12/14 11:56:27;;;;;;;42.80;21.10;;;;;;;7.40;52.18;101463.87;5397877;32;36507;-69
2021/12/14 11:59:29;;;;;;;46.80;24.03;;;;;;;7.37;53.61;101453.44;5411692;32;35672;-67
2021/12/14 12:02:31;;;;;;;42.63;22.10;;;;;;;8.04;50.04;101461.44;5430150;32;34510;-65
2021/12/14 12:05:36;;;;;;;44.23;21.73;;;;;;;9.41;46.89;101449.94;5396991;32;34334;-70
2021/12/14 12:12:10;;;;;;;40.33;23.03;;;;;;;10.87;42.90;101446.06;5426054;32;34175;-65
2021/12/14 12:15:23;;;;;;;38.87;20.60;;;;;;;10.70;41.93;101448.25;5424481;32;34072;-68
2021/12/14 12:18:25;;;;;;;39.45;21.52;;;;;;;10.79;42.43;101450.66;5395430;32;34244;-67
2021/12/14 12:21:29;;;;;;;48.93;21.57;;;;;;;11.71;40.89;101450.97;5423888;32;35946;-68
2021/12/14 12:24:48;;;;;;;43.67;23.70;;;;;;;11.14;41.95;101455.06;5420597;32;34048;-69
2021/12/14 12:27:58;;;;;;;37.50;21.10;;;;;;;10.45;42.25;101459.28;5430101;32;33167;-72
2021/12/14 12:31:07;;;;;;;39.37;22.80;;;;;;;9.59;44.87;101453.97;5412330;32;34332;-73
2021/12/14 12:34:10;;;;;;;36.77;20.17;;;;;;;10.39;43.88;101448.06;5405100;32;33913;-67
2021/12/14 12:37:14;;;;;;;39.20;20.17;;;;;;;10.94;42.64;101436.25;5417466;32;33440;-71
2021/12/14 12:40:19;;;;;;;43.13;21.55;;;;;;;12.14;39.39;101430.47;5398650;32;34336;-66
2021/12/14 12:43:44;;;;;;;33.30;19.47;;;;;;;10.69;42.14;101436.87;5432322;32;33471;-70
2021/12/14 12:47:01;;;;;;;37.70;18.93;;;;;;;9.06;45.88;101448.72;5416234;32;34042;-69
2021/12/14 12:50:04;;;;;;;38.80;20.40;;;;;;;7.86;49.32;101461.69;5419652;32;34582;-70
2021/12/14 12:53:07;;;;;;;35.00;18.17;;;;;;;7.94;48.89;101457.22;5418647;32;35191;-67
2021/12/14 12:56:20;;;;;;;35.23;19.63;;;;;;;8.68;47.12;101458.03;5410608;32;32907;-66
2021/12/14 13:00:10;;;;;;;39.45;19.30;;;;;;;9.08;45.88;101446.06;5413459;32;34425;-65
2021/12/14 13:03:29;;;;;;;36.50;18.50;;;;;;;8.48;47.03;101446.97;5368321;32;33979;-72
2021/12/14 13:06:31;;;;;;;37.27;18.93;;;;;;;7.89;48.82;101445.94;5404799;32;34637;-69
2021/12/14 13:10:00;;;;;;;34.13;18.10;;;;;;;7.43;50.45;101442.94;5427765;32;33960;-65
2021/12/14 13:13:12;;;;;;;38.87;20.03;;;;;;;7.60;49.57;101434.03;5429768;32;34657;-69
2021/12/14 13:16:24;;;;;;;44.97;19.83;;;;;;;6.83;52.10;101446.03;5429187;32;36736;-72
2021/12/14 13:19:30;;;;;;;41.13;20.60;;;;;;;6.72;52.26;101453.06;5417095;32;34768;-69
2021/12/14 13:22:46;;;;;;;41.43;20.77;;;;;;;6.08;54.69;101449.03;5411130;32;33137;-63
2021/12/14 13:25:49;;;;;;;40.00;19.53;;;;;;;6.93;52.40;101442.47;5407191;32;34590;-69
2021/12/14 13:28:57;;;;;;;42.37;20.13;;;;;;;6.75;53.44;101450.41;5434484;32;33983;-72
2021/12/14 13:32:08;;;;;;;41.77;20.37;;;;;;;7.29;51.47;101445.66;5419550;32;33330;-68
2021/12/14 13:35:25;;;;;;;43.28;21.42;;;;;;;7.98;49.72;101451.06;5427576;32;35129;-66
2021/12/14 13:38:32;;;;;;;37.20;20.05;;;;;;;7.42;51.23;101454.28;5432749;32;32694;-71
2021/12/14 13:41:58;;;;;;;42.07;21.60;;;;;;;7.24;51.86;101447.44;5386201;32;34982;-68
2021/12/14 13:45:05;;;;;;;38.83;20.90;;;;;;;7.39;51.64;101455.16;5386414;32;33961;-64
2021/12/14 13:48:10;;;;;;;40.37;21.63;;;;;;;7.03;52.45;101451.13;5393457;32;34239;-66
2021/12/14 13:51:17;;;;;;;50.40;23.63;;;;;;;6.65;53.49;101446.16;5377964;32;33345;-63
2021/12/14 13:54:20;;;;;;;44.93;23.73;;;;;;;6.49;54.38;101461.03;5391600;32;35072;-70
2021/12/14 13:57:24;;;;;;;44.03;22.55;;;;;;;6.60;54.39;101448.78;5391663;32;34166;-73
2021/12/14 14:00:53;;;;;;;44.07;21.40;;;;;;;7.15;53.14;101448.41;5387495;32;35434;-70
2021/12/14 14:04:01;;;;;;;48.33;21.70;;;;;;;7.73;51.18;101446.97;5390166;32;34818;-71
2021/12/14 14:07:04;;;;;;;53.23;23.67;;;;;;;7.54;51.17;101451.53;5367364;32;37684;-70
2021/12/14 14:10:07;;;;;;;41.60;21.63;;;;;;;7.12;52.49;101447.53;5359118;32;34800;-74
2021/12/14 14:13:20;;;;;;;50.33;22.67;;;;;;;6.85;53.39;101456.47;5366264;32;32928;-64
2021/12/14 14:16:23;;;;;;;45.27;22.53;;;;;;;6.75;53.75;101460.87;5376679;32;34045;-68
2021/12/14 14:19:31;;;;;;;40.80;21.63;;;;;;;6.63;54.15;101453.09;5376701;32;35275;-65
2021/12/14 14:22:38;;;;;;;46.00;22.20;;;;;;;6.26;55.34;101448.09;5368697;32;34328;-68
2021/12/14 14:25:49;;;;;;;47.53;22.33;;;;;;;6.44;55.16;101452.34;5362361;32;35324;-68
2021/12/14 14:29:10;;;;;;;40.83;21.53;;;;;;;6.78;54.21;101450.41;5386668;32;34214;-66
2021/12/14 14:32:35;;;;;;;49.43;24.40;;;;;;;6.67;54.26;101452.22;5375308;32;34276;-70
2021/12/14 14:35:43;;;;;;;46.03;22.77;;;;;;;6.47;55.02;101447.97;5377251;32;34708;-68
2021/12/14 14:38:48;;;;;;;44.73;23.33;;;;;;;6.60;54.70;101450.53;5376363;32;35829;-74
2021/12/14 14:41:54;;;;;;;57.23;24.13;;;;;;;6.88;53.75;101459.03;5372994;32;33432;-64
2021/12/14 14:44:58;;;;;;;45.13;23.30;;;;;;;6.64;54.21;101455.72;5393051;32;35444;-64
2021/12/14 14:48:20;;;;;;;52.80;24.80;;;;;;;6.60;54.45;101460.97;5414919;32;34178;-70
2021/12/14 14:51:45;;;;;;;51.37;22.87;;;;;;;6.61;54.43;101475.75;5428143;32;33930;-69